ADDS METAR Data INFO
IDs: Format: Raw Decoded Include TAF

Data at: 0751 UTC 17 Oct 2017

KI63 170735Z AUTO 21005KT 10SM CLR 08/04 A3025 RMK AO2 T00800040
KI63 170715Z AUTO 21007KT 10SM CLR 08/04 A3024 RMK AO2 T00800040
KI63 170655Z AUTO 21006KT 10SM CLR 08/04 A3024 RMK AO2 T00840039
KI63 170630Z AUTO 21006KT 10SM CLR 08/04 A3024 RMK AO2 T00810039
KI63 170610Z AUTO 21006KT 10SM CLR 08/04 A3024 RMK AO2 T00840036
KI63 170555Z AUTO 21006KT 10SM CLR 08/04 A3023 RMK AO2 T00790035 10120 20061 401810021
KI63 170535Z AUTO 21006KT 10SM CLR 07/03 A3023 RMK AO2 T00730032
KI63 170515Z AUTO 21006KT 10SM CLR 07/03 A3025 RMK AO2 T00700028
KI63 170455Z AUTO 21005KT 10SM CLR 07/03 A3025 RMK AO2 T00660025
KI63 170435Z AUTO 21005KT 10SM CLR 08/03 A3025 RMK AO2 T00790027
KI63 170415Z AUTO 22005KT 10SM CLR 08/03 A3025 RMK AO2 T00810027
KI63 170355Z AUTO 21005KT 10SM CLR 08/03 A3026 RMK AO2 T00750028
KI63 170335Z AUTO 20004KT 10SM CLR 08/03 A3026 RMK AO2 T00820032
KI63 170315Z AUTO 20004KT 10SM CLR 08/04 A3026 RMK AO2 T00810035
KI63 170255Z AUTO 20006KT 10SM CLR 07/04 A3026 RMK AO2 T00680042
KI63 170235Z AUTO 20004KT 10SM CLR 08/05 A3026 RMK AO2 T00750050
KI63 170215Z AUTO 20003KT 10SM CLR 08/05 A3026 RMK AO2 T00750054
KI63 170155Z AUTO 20004KT 10SM CLR 07/05 A3026 RMK AO2 T00720050
KI63 170135Z AUTO 21003KT 10SM CLR 09/05 A3026 RMK AO2 T00850050
KI63 170115Z AUTO 20003KT 10SM CLR 09/05 A3026 RMK AO2 T00860047
KI63 170055Z AUTO 20003KT 10SM CLR 10/05 A3026 RMK AO2 T00990047
KI63 170030Z AUTO 00000KT 10SM CLR 10/04 A3025 RMK AO2 T01040042
KI63 170010Z AUTO 00000KT 10SM CLR 11/04 A3025 RMK AO2 T01140040
KI63 162355Z AUTO 00000KT 10SM CLR 12/04 A3024 RMK AO2 T01210039 10181 20121
KI63 162335Z AUTO 00000KT 10SM CLR 14/03 A3024 RMK AO2 T01400028
KI63 162315Z AUTO 00000KT 10SM CLR 15/03 A3024 RMK AO2 T01510030
KI63 162255Z AUTO 22003KT 10SM CLR 16/02 A3025 RMK AO2 T01620023
KI63 162235Z AUTO 25003KT 10SM CLR 17/02 A3025 RMK AO2 T01710018
KI63 162215Z AUTO 24006KT 10SM CLR 18/02 A3026 RMK AO2 T01760018
KI63 162155Z AUTO 23007KT 10SM CLR 18/02 A3026 RMK AO2 T01780023
KI63 162135Z AUTO 26006KT 10SM CLR 18/02 A3027 RMK AO2 T01800017
KI63 162115Z AUTO 25007KT 10SM CLR 18/02 A3027 RMK AO2 T01800020
KI63 162055Z AUTO 25004KT 10SM CLR 18/02 A3028 RMK AO2 T01810022
KI63 162035Z AUTO 24007KT 10SM CLR 18/02 A3028 RMK AO2 T01800018
KI63 162015Z AUTO 25007KT 10SM CLR 18/02 A3029 RMK AO2 T01790015
KI63 161955Z AUTO 25009KT 230V310 10SM CLR 18/02 A3029 RMK AO2 T01770020
KI63 161935Z AUTO 27008KT 10SM CLR 18/02 A3030 RMK AO2 T01760021
KI63 161915Z AUTO 29007G14KT 10SM CLR 18/02 A3031 RMK AO2 T01760019
KI63 161855Z AUTO 30006KT 10SM CLR 17/02 A3031 RMK AO2 T01740019
KI63 161835Z AUTO 25005G16KT 10SM CLR 17/03 A3032 RMK AO2 T01740027
KI63 161815Z AUTO 28011KT 10SM CLR 17/02 A3033 RMK AO2 T01700024
KI63 161755Z AUTO 28009KT 10SM CLR 17/02 A3034 RMK AO2 T01680024 10169 20041
KI63 161735Z AUTO 28004KT 10SM CLR 16/03 A3035 RMK AO2 T01630033
KI63 161715Z AUTO 25006KT 10SM CLR 16/02 A3036 RMK AO2 T01590024
KI63 161655Z AUTO 29006KT 10SM CLR 15/03 A3036 RMK AO2 T01540030
KI63 161635Z AUTO 26007KT 10SM CLR 15/04 A3036 RMK AO2 T01510040
KI63 161615Z AUTO 25007KT 10SM CLR 15/04 A3036 RMK AO2 T01450043
KI63 161555Z AUTO 24007KT 10SM CLR 14/05 A3036 RMK AO2 T01410049
KI63 161535Z AUTO 26008KT 10SM CLR 14/04 A3036 RMK AO2 T01360041
KI63 161515Z AUTO 24011KT 10SM CLR 13/04 A3036 RMK AO2 T01270040
KI63 161455Z AUTO 25007KT 10SM CLR 12/05 A3037 RMK AO2 T01160046
KI63 161435Z AUTO 25007KT 10SM CLR 11/05 A3037 RMK AO2 T01060048
KI63 161415Z AUTO 24006KT 10SM CLR 09/05 A3037 RMK AO2 T00940050
KI63 161350Z AUTO 23004KT 10SM CLR 08/05 A3037 RMK AO2 T00800047
KI63 161335Z AUTO 24005KT 10SM CLR 07/05 A3037 RMK AO2 T00680046
KI63 161315Z AUTO 24006KT 10SM CLR 06/04 A3036 RMK AO2 T00560041
KI63 161255Z AUTO 23004KT 10SM CLR 05/04 A3036 RMK AO2 T00500038
KI63 161235Z AUTO 24006KT 10SM CLR 04/04 A3035 RMK AO2 T00440035
KI63 161215Z AUTO 24005KT 10SM CLR 04/04 A3035 RMK AO2 T00420035
KI63 161155Z AUTO 24006KT 10SM CLR 04/04 A3035 RMK AO2 T00400036 10045 20021
KI63 161135Z AUTO 23003KT 10SM CLR 02/02 A3034 RMK AO2 T00210017
KI63 161115Z AUTO 22003KT 10SM CLR 03/03 A3034 RMK AO2 T00300028
KI63 161055Z AUTO 00000KT 10SM CLR 03/02 A3034 RMK AO2 T00280022
KI63 161035Z AUTO 24005KT 10SM CLR 04/04 A3034 RMK AO2 T00430038
KI63 161015Z AUTO 24005KT 10SM CLR 04/04 A3034 RMK AO2 T00420037
KI63 160955Z AUTO 24003KT 10SM CLR 03/03 A3033 RMK AO2 T00290025
KI63 160935Z AUTO 00000KT 10SM CLR 03/02 A3033 RMK AO2 T00260022
KI63 160915Z AUTO 24004KT 10SM CLR 04/03 A3033 RMK AO2 T00400033
KI63 160855Z AUTO 24004KT 10SM CLR 03/03 A3033 RMK AO2 T00310026
KI63 160835Z AUTO 24004KT 10SM CLR 04/03 A3033 RMK AO2 T00390031
KI63 160815Z AUTO 22004KT 10SM CLR 04/03 A3033 RMK AO2 T00350029
KI63 160755Z AUTO 21003KT 10SM CLR 04/03 A3033 RMK AO2 T00370031
KI63 160735Z AUTO 21004KT 10SM CLR 03/03 A3033 RMK AO2 T00310026
KI63 160715Z AUTO 21004KT 10SM CLR 03/03 A3033 RMK AO2 T00290026
KI63 160655Z AUTO 00000KT 10SM CLR 03/03 A3033 RMK AO2 T00300025
KI63 160635Z AUTO 22003KT 10SM CLR 03/03 A3033 RMK AO2 T00320029
KI63 160615Z AUTO 00000KT 10SM CLR 03/03 A3033 RMK AO2 T00320028
KI63 160555Z AUTO 24003KT 10SM CLR 04/03 A3033 RMK AO2 T00360032 10075 20035
KI63 160535Z AUTO 00000KT 10SM CLR 04/04 A3033 RMK AO2 T00380035
KI63 160515Z AUTO 00000KT 10SM CLR 04/03 A3033 RMK AO2 T00360031
KI63 160455Z AUTO 00000KT 10SM CLR 04/03 A3033 RMK AO2 T00380033
KI63 160435Z AUTO 00000KT 10SM CLR 04/04 A3033 RMK AO2 T00400036
KI63 160415Z AUTO 00000KT 10SM CLR 04/04 A3033 RMK AO2 T00430038
KI63 160355Z AUTO 00000KT 10SM CLR 05/04 A3033 RMK AO2 T00450040
KI63 160335Z AUTO 00000KT 10SM CLR 05/04 A3033 RMK AO2 T00460041
KI63 160315Z AUTO 00000KT 10SM CLR 05/04 A3032 RMK AO2 T00470041
KI63 160255Z AUTO 00000KT 10SM CLR 05/05 A3031 RMK AO2 T00520045
KI63 160235Z AUTO 00000KT 10SM CLR 06/05 A3031 RMK AO2 T00550047
KI63 160215Z AUTO 00000KT 10SM CLR 06/05 A3031 RMK AO2 T00570047
KI63 160155Z AUTO 00000KT 10SM CLR 06/05 A3030 RMK AO2 T00580045
KI63 160135Z AUTO 00000KT 10SM CLR 07/05 A3030 RMK AO2 T00650050
KI63 160115Z AUTO 00000KT 10SM CLR 06/04 A3030 RMK AO2 T00630044
KI63 160055Z AUTO 01004KT 10SM CLR 07/05 A3030 RMK AO2 T00690045
KI63 160035Z AUTO 36003KT 10SM CLR 07/05 A3029 RMK AO2 T00720045
KI63 160015Z AUTO 36004KT 10SM CLR 07/04 A3029 RMK AO2 T00700043
KI63 152355Z AUTO 35004KT 10SM CLR 08/05 A3028 RMK AO2 T00750046 10134 20075
KI63 152335Z AUTO 34005KT 10SM CLR 09/05 A3028 RMK AO2 T00870048
KI63 152315Z AUTO 34006KT 10SM CLR 10/05 A3028 RMK AO2 T01000048
KI63 152255Z AUTO 33009KT 10SM CLR 11/05 A3027 RMK AO2 T01090046
KI63 152235Z AUTO 32010KT 10SM CLR 12/04 A3026 RMK AO2 T01150044
KI63 152215Z AUTO 31012KT 10SM SCT034 12/05 A3026 RMK AO2 T01190046
KI63 152155Z AUTO 31012G19KT 10SM SCT034 12/05 A3026 RMK AO2 T01220045
KI63 152135Z AUTO 33014G19KT 10SM BKN034 13/05 A3025 RMK AO2 T01250047
KI63 152115Z AUTO 31015G23KT 10SM BKN034 12/05 A3025 RMK AO2 T01240048
KI63 152055Z AUTO 32015G20KT 10SM SCT034 12/05 A3025 RMK AO2 T01150045
KI63 152035Z AUTO 32014G22KT 10SM BKN032 12/05 A3024 RMK AO2 T01200046
KI63 152015Z AUTO 32012G20KT 10SM OVC032 12/05 A3024 RMK AO2 T01180048
KI63 151955Z AUTO 30018G26KT 10SM OVC032 13/05 A3023 RMK AO2 T01260051